createdAt,value
2023-03-12T00:02:24.438Z,15.30
2023-03-12T00:04:51.652Z,12.35
2023-03-12T00:07:18.816Z,13.75
2023-03-12T00:09:46.248Z,14.00
2023-03-12T00:12:13.602Z,12.57
2023-03-12T00:14:40.755Z,10.40
2023-03-12T00:17:08.066Z,11.25
2023-03-12T00:19:35.253Z,15.60
2023-03-12T00:22:02.460Z,12.20
2023-03-12T00:24:29.638Z,15.00
2023-03-12T00:26:56.835Z,10.93
2023-03-12T00:29:23.996Z,11.82
2023-03-12T00:31:51.879Z,12.40
2023-03-12T00:34:19.218Z,11.93
2023-03-12T00:36:46.337Z,11.55
2023-03-12T00:39:13.625Z,15.93
2023-03-12T00:41:41.517Z,12.15
2023-03-12T00:44:08.684Z,18.23
2023-03-12T00:46:35.914Z,15.95
2023-03-12T00:49:03.132Z,13.73
2023-03-12T00:51:30.308Z,13.27
2023-03-12T00:53:57.476Z,13.88
2023-03-12T00:56:24.783Z,13.32
2023-03-12T00:58:52.046Z,13.73
2023-03-12T01:01:19.807Z,15.23
2023-03-12T01:03:47.407Z,14.00
2023-03-12T01:06:14.634Z,15.00
2023-03-12T01:08:41.771Z,14.77
2023-03-12T01:11:09.138Z,13.52
2023-03-12T01:13:36.291Z,16.02
2023-03-12T01:16:03.538Z,11.77
2023-03-12T01:18:30.819Z,11.65
2023-03-12T01:20:59.306Z,11.07
2023-03-12T01:23:26.832Z,9.52
2023-03-12T01:25:55.568Z,9.93
2023-03-12T01:28:23.675Z,10.15
2023-03-12T01:30:50.854Z,10.55
2023-03-12T01:33:18.557Z,8.52
2023-03-12T01:35:45.931Z,7.65
2023-03-12T01:38:14.502Z,10.20
2023-03-12T01:40:42.267Z,6.05
2023-03-12T01:43:27.973Z,7.70
2023-03-12T01:46:13.915Z,9.23
2023-03-12T01:48:43.534Z,5.00
2023-03-12T01:51:13.060Z,6.30
2023-03-12T01:53:41.076Z,5.00
2023-03-12T01:56:09.397Z,6.95
2023-03-12T01:58:38.013Z,5.00
2023-03-12T02:01:05.495Z,7.00
2023-03-12T02:03:33.504Z,6.20
2023-03-12T02:06:06.922Z,7.88
2023-03-12T02:08:37.506Z,5.80
2023-03-12T02:11:04.783Z,4.78
2023-03-12T02:13:32.084Z,5.40
2023-03-12T02:15:59.347Z,4.47
2023-03-12T02:18:26.510Z,6.60
2023-03-12T02:20:57.579Z,6.15
2023-03-12T02:23:29.654Z,5.10
2023-03-12T02:25:57.234Z,7.22
2023-03-12T02:28:25.843Z,6.40
2023-03-12T02:30:54.803Z,5.97
2023-03-12T02:33:22.078Z,6.75
2023-03-12T02:35:49.294Z,6.78
2023-03-12T02:38:35.262Z,8.32
2023-03-12T02:41:05.082Z,5.70
2023-03-12T02:43:32.230Z,6.40
2023-03-12T02:45:59.457Z,5.45
2023-03-12T02:48:26.728Z,6.82
2023-03-12T02:50:53.922Z,6.88
2023-03-12T02:53:21.128Z,7.93
2023-03-12T02:55:49.027Z,6.35
2023-03-12T02:58:16.159Z,5.88
2023-03-12T03:00:43.454Z,5.65
2023-03-12T03:03:11.136Z,5.22
2023-03-12T03:05:38.295Z,6.40
2023-03-12T03:08:06.041Z,5.25
2023-03-12T03:10:33.206Z,6.30
2023-03-12T03:13:00.445Z,4.78
2023-03-12T03:15:27.805Z,4.53
2023-03-12T03:17:54.967Z,5.18
2023-03-12T03:20:24.322Z,4.93
2023-03-12T03:22:51.482Z,6.43
2023-03-12T03:25:22.235Z,5.97
2023-03-12T03:27:49.723Z,5.25
2023-03-12T03:30:17.025Z,5.15
2023-03-12T03:32:44.230Z,4.05
2023-03-12T03:35:11.503Z,5.47
2023-03-12T03:37:38.698Z,5.18
2023-03-12T03:40:06.268Z,5.70
2023-03-12T03:42:33.407Z,6.90
2023-03-12T03:45:00.547Z,5.80
2023-03-12T03:47:27.726Z,5.15
2023-03-12T03:49:54.857Z,4.55
2023-03-12T03:52:22.155Z,5.97
2023-03-12T03:54:49.294Z,4.90
2023-03-12T03:57:16.474Z,7.03
2023-03-12T03:59:43.610Z,4.05
2023-03-12T04:02:10.776Z,4.75
2023-03-12T04:04:38.033Z,5.05
2023-03-12T04:07:05.193Z,7.57
2023-03-12T04:09:32.547Z,5.80
2023-03-12T04:11:59.681Z,5.90
2023-03-12T04:14:26.897Z,4.80
2023-03-12T04:16:54.336Z,7.35
2023-03-12T04:19:21.521Z,5.72
2023-03-12T04:21:48.675Z,6.28
2023-03-12T04:24:16.821Z,6.47
2023-03-12T04:26:43.989Z,6.60
2023-03-12T04:29:11.123Z,5.25
2023-03-12T04:31:38.555Z,5.70
2023-03-12T04:34:05.784Z,4.90
2023-03-12T04:36:33.019Z,4.68
2023-03-12T04:39:00.151Z,6.85
2023-03-12T04:41:27.321Z,5.20
2023-03-12T04:43:54.525Z,7.70
2023-03-12T04:46:21.996Z,7.63
2023-03-12T04:48:49.245Z,7.32
2023-03-12T04:51:16.438Z,5.90
2023-03-12T04:53:43.743Z,7.03
2023-03-12T04:56:11.097Z,5.22
2023-03-12T04:58:38.384Z,6.75
2023-03-12T05:01:06.071Z,6.93
2023-03-12T05:03:33.404Z,5.75
2023-03-12T05:06:00.638Z,7.18
2023-03-12T05:08:27.782Z,5.93
2023-03-12T05:10:55.219Z,5.75
2023-03-12T05:13:23.244Z,6.55
2023-03-12T05:15:50.814Z,6.80
2023-03-12T05:18:20.532Z,7.78
2023-03-12T05:20:47.962Z,8.48
2023-03-12T05:23:15.128Z,6.63
2023-03-12T05:25:42.582Z,8.90
2023-03-12T05:28:09.807Z,8.52
2023-03-12T05:30:37.063Z,6.38
2023-03-12T05:33:04.279Z,5.90
2023-03-12T05:35:31.592Z,5.30
2023-03-12T05:37:58.975Z,8.27
2023-03-12T05:40:26.117Z,7.00
2023-03-12T05:42:53.882Z,8.50
2023-03-12T05:45:21.177Z,7.07
2023-03-12T05:47:48.420Z,7.22
2023-03-12T05:50:16.812Z,7.85
2023-03-12T05:52:43.963Z,6.20
2023-03-12T05:55:11.198Z,7.07
2023-03-12T05:57:38.361Z,9.98
2023-03-12T06:00:06.220Z,7.45
2023-03-12T06:02:33.402Z,9.13
2023-03-12T06:05:00.569Z,7.57
2023-03-12T06:07:27.705Z,7.20
2023-03-12T06:09:54.847Z,6.25
2023-03-12T06:12:22.035Z,6.97
2023-03-12T06:14:49.164Z,13.13
2023-03-12T06:17:16.352Z,6.95
2023-03-12T06:19:44.007Z,6.95
2023-03-12T06:22:11.176Z,8.02
2023-03-12T06:24:38.337Z,7.25
2023-03-12T06:27:05.554Z,6.97
2023-03-12T06:29:32.708Z,7.53
2023-03-12T06:31:59.879Z,5.88
2023-03-12T06:34:27.567Z,7.28
2023-03-12T06:36:54.743Z,6.82
2023-03-12T06:39:22.062Z,5.93
2023-03-12T06:41:49.322Z,6.47
2023-03-12T06:44:16.711Z,6.55
2023-03-12T06:46:44.415Z,6.03
2023-03-12T06:49:12.421Z,6.25
2023-03-12T06:51:39.654Z,7.90
2023-03-12T06:54:06.925Z,6.97
2023-03-12T06:56:34.149Z,5.22
2023-03-12T06:59:01.446Z,7.47
2023-03-12T07:01:28.653Z,5.18
2023-03-12T07:03:55.876Z,4.70
2023-03-12T07:06:24.389Z,7.57
2023-03-12T07:08:51.715Z,5.18
2023-03-12T07:11:20.448Z,3.58
2023-03-12T07:13:48.067Z,5.40
2023-03-12T07:16:15.348Z,8.27
2023-03-12T07:18:42.589Z,4.60
2023-03-12T07:21:09.752Z,6.03
2023-03-12T07:23:37.114Z,5.43
2023-03-12T07:26:05.431Z,5.20
2023-03-12T07:28:32.623Z,5.90
2023-03-12T07:31:03.568Z,3.45
2023-03-12T07:33:30.887Z,3.88
2023-03-12T07:35:58.253Z,4.97
2023-03-12T07:38:25.696Z,4.55
2023-03-12T07:40:53.742Z,5.18
2023-03-12T07:43:21.876Z,5.25
2023-03-12T07:45:49.700Z,6.65
2023-03-12T07:48:17.252Z,3.58
2023-03-12T07:50:44.480Z,3.25
2023-03-12T07:53:11.776Z,3.10
2023-03-12T07:55:39.109Z,3.90
2023-03-12T07:58:06.419Z,3.72
2023-03-12T08:00:33.705Z,2.83
2023-03-12T08:03:01.275Z,3.35
2023-03-12T08:05:28.683Z,3.42
2023-03-12T08:07:55.897Z,2.70
2023-03-12T08:10:23.272Z,3.08
2023-03-12T08:12:50.686Z,6.07
2023-03-12T08:15:17.988Z,4.47
2023-03-12T08:17:45.400Z,2.55
2023-03-12T08:20:12.958Z,3.80
2023-03-12T08:22:40.584Z,2.45
2023-03-12T08:25:08.743Z,4.47
2023-03-12T08:27:35.977Z,7.93
2023-03-12T08:30:03.945Z,4.03
2023-03-12T08:32:31.179Z,2.42
2023-03-12T08:34:58.428Z,5.20
2023-03-12T08:37:25.619Z,5.63
2023-03-12T08:39:52.744Z,4.53
2023-03-12T08:42:19.936Z,3.83
2023-03-12T08:44:47.109Z,5.82
2023-03-12T08:47:14.274Z,6.45
2023-03-12T08:49:41.447Z,2.25
2023-03-12T08:52:09.069Z,8.35
2023-03-12T08:54:36.267Z,5.30
2023-03-12T08:57:03.782Z,4.47
2023-03-12T08:59:30.971Z,3.83
2023-03-12T09:01:58.085Z,5.13
2023-03-12T09:04:25.290Z,3.30
2023-03-12T09:06:52.476Z,8.32
2023-03-12T09:09:19.647Z,3.08
2023-03-12T09:11:46.832Z,3.25
2023-03-12T09:17:02.244Z,3.22
2023-03-12T09:19:29.664Z,4.20
2023-03-12T09:21:56.891Z,4.30
2023-03-12T09:24:24.272Z,4.50
2023-03-12T09:26:51.566Z,3.88
2023-03-12T09:29:18.752Z,2.60
2023-03-12T09:31:45.902Z,1.95
2023-03-12T09:34:13.089Z,2.28
2023-03-12T09:36:40.267Z,2.08
2023-03-12T09:39:07.708Z,3.53
2023-03-12T09:41:36.597Z,2.03
2023-03-12T09:44:06.729Z,3.05
2023-03-12T09:47:01.177Z,2.00
2023-03-12T09:49:35.093Z,2.30
2023-03-12T09:52:03.841Z,3.50
2023-03-12T09:54:47.693Z,2.35
2023-03-12T09:57:22.785Z,2.33
2023-03-12T09:59:50.863Z,3.35
2023-03-12T10:02:27.191Z,1.90
2023-03-12T10:05:00.309Z,1.70
2023-03-12T10:07:36.708Z,1.95
2023-03-12T10:10:16.052Z,2.58
2023-03-12T10:12:44.122Z,2.20
2023-03-12T10:15:27.063Z,2.28
2023-03-12T10:18:10.252Z,2.50
2023-03-12T10:20:50.390Z,2.05
2023-03-12T10:23:32.824Z,1.90
2023-03-12T10:26:09.087Z,2.15
2023-03-12T10:28:49.093Z,2.53
2023-03-12T10:31:22.569Z,3.85
2023-03-12T10:34:00.517Z,2.17
2023-03-12T10:36:40.711Z,2.45
2023-03-12T10:39:18.402Z,2.08
2023-03-12T10:41:46.633Z,3.17
2023-03-12T10:44:24.334Z,2.65
2023-03-12T10:47:10.193Z,3.22
2023-03-12T10:49:38.169Z,3.70
2023-03-12T10:52:05.339Z,2.38
2023-03-12T10:54:40.750Z,4.65
2023-03-12T10:57:09.054Z,3.42
2023-03-12T10:59:37.848Z,3.17
2023-03-12T11:02:25.292Z,3.25
2023-03-12T11:04:55.876Z,3.83
2023-03-12T11:07:29.104Z,2.40
2023-03-12T11:10:05.164Z,2.88
2023-03-12T11:12:32.936Z,3.60
2023-03-12T11:15:00.220Z,2.45
2023-03-12T11:17:28.625Z,2.80
2023-03-12T11:19:55.877Z,5.28
2023-03-12T11:22:33.264Z,3.90
2023-03-12T11:25:20.400Z,2.30
2023-03-12T11:27:50.463Z,3.65
2023-03-12T11:30:22.181Z,1.88
2023-03-12T11:32:49.960Z,4.13
2023-03-12T11:35:19.174Z,3.08
2023-03-12T11:37:49.244Z,3.28
2023-03-12T11:40:29.986Z,3.15
2023-03-12T11:43:19.475Z,2.20
2023-03-12T11:46:01.386Z,2.22
2023-03-12T11:48:37.770Z,2.17
2023-03-12T11:51:11.716Z,1.77
2023-03-12T11:53:51.150Z,4.63
2023-03-12T11:56:18.307Z,4.30
2023-03-12T11:59:00.761Z,1.50
2023-03-12T12:01:51.227Z,2.58
2023-03-12T12:04:37.060Z,3.08
2023-03-12T12:07:04.262Z,1.88
2023-03-12T12:09:40.677Z,2.00
2023-03-12T12:12:26.657Z,2.63
2023-03-12T12:15:12.725Z,4.68
2023-03-12T12:17:45.687Z,2.63
2023-03-12T12:20:22.186Z,2.80
2023-03-12T12:22:49.642Z,3.40
2023-03-12T12:25:16.964Z,2.60
2023-03-12T12:28:03.188Z,3.55
2023-03-12T12:30:41.684Z,4.13
2023-03-12T12:33:08.857Z,2.58
2023-03-12T12:35:40.446Z,3.03
2023-03-12T12:38:14.107Z,2.42
2023-03-12T12:40:41.274Z,2.08
2023-03-12T12:43:17.464Z,3.85
2023-03-12T12:45:45.110Z,3.60
2023-03-12T12:48:17.677Z,5.95
2023-03-12T12:50:45.390Z,6.13
2023-03-12T12:53:21.676Z,3.90
2023-03-12T12:55:52.003Z,5.40
2023-03-12T12:58:24.569Z,4.03
2023-03-12T13:00:59.643Z,4.57
2023-03-12T13:03:27.835Z,3.38
2023-03-12T13:05:55.053Z,2.80
2023-03-12T13:08:36.176Z,3.10
2023-03-12T13:11:17.632Z,3.55
2023-03-12T13:13:51.695Z,4.32
2023-03-12T13:16:30.670Z,4.65
2023-03-12T13:18:59.332Z,3.53
2023-03-12T13:21:32.606Z,4.40
2023-03-12T13:24:17.153Z,4.82
2023-03-12T13:26:59.121Z,5.72
2023-03-12T13:29:29.478Z,4.80
2023-03-12T13:31:57.126Z,4.93
2023-03-12T13:34:26.896Z,6.93
2023-03-12T13:36:59.625Z,4.78
2023-03-12T13:39:36.568Z,3.60
2023-03-12T13:42:39.184Z,4.93
2023-03-12T13:45:26.449Z,3.63
2023-03-12T13:47:56.521Z,3.40
2023-03-12T13:50:23.857Z,6.28
2023-03-12T13:52:56.093Z,5.55
2023-03-12T13:55:26.912Z,5.93
2023-03-12T13:57:55.814Z,5.05
2023-03-12T14:00:28.177Z,4.15
2023-03-12T14:03:09.450Z,2.95
2023-03-12T14:05:45.195Z,3.25
2023-03-12T14:08:18.344Z,3.25
2023-03-12T14:11:03.909Z,3.20
2023-03-12T14:13:40.733Z,3.40
2023-03-12T14:16:22.281Z,3.75
2023-03-12T14:18:50.148Z,3.03
2023-03-12T14:21:18.260Z,3.72
2023-03-12T14:23:49.918Z,4.13
2023-03-12T14:26:20.792Z,4.32
2023-03-12T14:28:49.550Z,5.07
2023-03-12T14:31:22.593Z,2.50
2023-03-12T14:33:55.899Z,5.53
2023-03-12T14:36:24.823Z,5.10
2023-03-12T14:38:54.553Z,3.72
2023-03-12T14:41:27.543Z,5.15
2023-03-12T14:43:55.138Z,2.85
2023-03-12T14:46:23.366Z,3.17
2023-03-12T14:48:52.195Z,5.97
2023-03-12T14:51:23.874Z,3.45
2023-03-12T14:53:51.804Z,3.30
2023-03-12T14:56:30.570Z,3.00
2023-03-12T14:58:59.090Z,3.88
2023-03-12T15:01:33.343Z,3.80
2023-03-12T15:04:02.254Z,2.25
2023-03-12T15:06:41.021Z,3.75
2023-03-12T15:09:08.272Z,3.03
2023-03-12T15:11:36.739Z,3.53
2023-03-12T15:14:14.628Z,2.22
2023-03-12T15:16:42.967Z,3.00
2023-03-12T15:19:14.151Z,2.00
2023-03-12T15:21:42.217Z,1.60
2023-03-12T15:24:13.305Z,2.58
2023-03-12T15:26:42.145Z,2.60
2023-03-12T15:29:26.709Z,2.15
2023-03-12T15:31:58.820Z,2.28
2023-03-12T15:34:33.646Z,1.65
2023-03-12T15:37:01.884Z,1.60
2023-03-12T15:39:36.064Z,1.30
2023-03-12T15:42:08.362Z,3.53
2023-03-12T15:44:46.557Z,1.50
2023-03-12T15:47:19.183Z,2.10
2023-03-12T15:49:51.753Z,1.05
2023-03-12T15:52:19.890Z,2.22
2023-03-12T15:55:05.218Z,1.73
2023-03-12T16:00:14.573Z,1.60
2023-03-12T16:02:52.853Z,0.80
2023-03-12T16:05:34.154Z,4.70
2023-03-12T16:08:02.769Z,0.77
2023-03-12T16:10:29.930Z,0.98
2023-03-12T16:13:00.192Z,1.58
2023-03-12T16:15:30.378Z,0.75
2023-03-12T16:17:57.594Z,1.50
2023-03-12T16:20:24.833Z,1.65
2023-03-12T16:22:52.062Z,1.45
2023-03-12T16:25:19.355Z,1.40
2023-03-12T16:27:49.350Z,1.48
2023-03-12T16:30:18.582Z,2.35
2023-03-12T16:32:46.002Z,1.17
2023-03-12T16:35:14.991Z,2.22
2023-03-12T16:37:42.252Z,3.28
2023-03-12T16:40:10.069Z,2.50
2023-03-12T16:42:37.875Z,2.05
2023-03-12T16:45:05.250Z,1.15
2023-03-12T16:47:32.494Z,1.98
2023-03-12T16:50:00.016Z,4.25
2023-03-12T16:52:27.371Z,2.70
2023-03-12T16:54:54.624Z,3.88
2023-03-12T16:57:27.834Z,3.05
2023-03-12T16:59:55.570Z,2.25
2023-03-12T17:02:22.981Z,2.00
2023-03-12T17:04:51.123Z,1.23
2023-03-12T17:07:18.503Z,3.75
2023-03-12T17:09:45.672Z,2.50
2023-03-12T17:12:18.835Z,2.38
2023-03-12T17:14:46.217Z,2.42
2023-03-12T17:17:13.346Z,4.05
2023-03-12T17:19:40.493Z,2.20
2023-03-12T17:22:07.700Z,1.42
2023-03-12T17:24:34.921Z,2.60
2023-03-12T17:27:02.082Z,2.75
2023-03-12T17:29:29.313Z,4.15
2023-03-12T17:31:56.449Z,2.00
2023-03-12T17:34:23.605Z,1.67
2023-03-12T17:36:50.870Z,2.55
2023-03-12T17:39:18.085Z,2.47
2023-03-12T17:41:45.312Z,3.17
2023-03-12T17:44:14.869Z,2.00
2023-03-12T17:46:56.479Z,2.58
2023-03-12T17:49:26.149Z,3.88
2023-03-12T17:51:53.519Z,2.13
2023-03-12T17:54:22.268Z,2.33
2023-03-12T17:56:49.508Z,3.83
2023-03-12T17:59:16.696Z,3.75
2023-03-12T18:01:43.890Z,3.22
2023-03-12T18:04:11.310Z,2.05
2023-03-12T18:06:38.831Z,3.30
2023-03-12T18:09:06.072Z,4.70
2023-03-12T18:11:33.244Z,3.17
2023-03-12T18:14:00.382Z,3.40
2023-03-12T18:16:27.740Z,2.67
2023-03-12T18:18:55.041Z,2.42
2023-03-12T18:21:22.181Z,5.97
2023-03-12T18:23:49.397Z,3.00
2023-03-12T18:26:16.545Z,4.65
2023-03-12T18:28:43.760Z,3.15
2023-03-12T18:31:11.946Z,1.75
2023-03-12T18:33:39.191Z,3.58
2023-03-12T18:36:06.604Z,2.63
2023-03-12T18:38:33.947Z,3.58
2023-03-12T18:41:12.357Z,4.05
2023-03-12T18:43:40.013Z,3.80
2023-03-12T18:46:08.397Z,5.53
2023-03-12T18:48:36.176Z,5.95
2023-03-12T18:51:03.386Z,1.80
2023-03-12T18:53:33.108Z,6.97
2023-03-12T18:56:00.720Z,1.90
2023-03-12T18:58:28.455Z,4.07
2023-03-12T19:00:56.551Z,3.70
2023-03-12T19:03:24.056Z,2.83
2023-03-12T19:06:01.259Z,1.90
2023-03-12T19:08:28.819Z,4.07
2023-03-12T19:10:55.956Z,3.40
2023-03-12T19:13:23.175Z,3.55
2023-03-12T19:15:50.473Z,3.92
2023-03-12T19:18:17.647Z,4.32
2023-03-12T19:20:45.642Z,3.92
2023-03-12T19:23:13.655Z,1.30
2023-03-12T19:25:40.830Z,4.15
2023-03-12T19:28:07.983Z,3.80
2023-03-12T19:30:35.125Z,3.05
2023-03-12T19:33:02.503Z,4.22
2023-03-12T19:35:29.916Z,2.85
2023-03-12T19:37:59.472Z,3.00
2023-03-12T19:40:26.975Z,2.55
2023-03-12T19:42:54.152Z,3.05
2023-03-12T19:45:21.294Z,5.43
2023-03-12T19:47:50.102Z,2.42
2023-03-12T19:50:20.036Z,3.92
2023-03-12T19:52:47.582Z,3.38
2023-03-12T19:55:17.819Z,3.10
2023-03-12T19:57:45.143Z,4.63
2023-03-12T20:00:12.853Z,2.22
2023-03-12T20:02:40.225Z,3.80
2023-03-12T20:05:07.982Z,2.80
2023-03-12T20:07:35.410Z,2.35
2023-03-12T20:10:02.679Z,1.58
2023-03-12T20:12:29.849Z,2.90
2023-03-12T20:14:57.044Z,4.05
2023-03-12T20:17:24.321Z,2.67
2023-03-12T20:19:51.531Z,5.95
2023-03-12T20:22:18.742Z,2.55
2023-03-12T20:24:45.919Z,4.13
2023-03-12T20:27:13.050Z,3.72
2023-03-12T20:29:40.267Z,4.68
2023-03-12T20:32:07.450Z,4.38
2023-03-12T20:34:34.664Z,2.65
2023-03-12T20:37:01.786Z,3.13
2023-03-12T20:39:28.932Z,6.97
2023-03-12T20:41:56.217Z,2.60
2023-03-12T20:44:23.462Z,4.15
2023-03-12T20:46:50.779Z,6.53
2023-03-12T20:49:18.011Z,5.78
2023-03-12T20:51:45.971Z,3.53
2023-03-12T20:54:13.205Z,5.00
2023-03-12T20:56:43.624Z,4.10
2023-03-12T20:59:13.886Z,3.55
2023-03-12T21:01:41.066Z,4.40
2023-03-12T21:04:08.338Z,3.75
2023-03-12T21:06:35.564Z,2.90
2023-03-12T21:09:03.020Z,3.80
2023-03-12T21:11:31.342Z,5.90
2023-03-12T21:13:58.670Z,3.80
2023-03-12T21:16:25.807Z,2.75
2023-03-12T21:18:56.450Z,3.58
2023-03-12T21:21:23.762Z,4.35
2023-03-12T21:23:51.203Z,3.83
2023-03-12T21:26:18.687Z,6.15
2023-03-12T21:28:46.003Z,3.58
2023-03-12T21:31:14.232Z,4.95
2023-03-12T21:33:41.412Z,3.65
2023-03-12T21:36:09.500Z,3.55
2023-03-12T21:38:37.309Z,4.72
2023-03-12T21:41:08.972Z,4.10
2023-03-12T21:43:36.478Z,5.20
2023-03-12T21:46:05.118Z,7.13
2023-03-12T21:48:32.410Z,5.22
2023-03-12T21:51:18.844Z,4.78
2023-03-12T21:53:46.253Z,5.88
2023-03-12T21:56:13.452Z,5.15
2023-03-12T21:58:40.693Z,4.13
2023-03-12T22:01:11.017Z,7.03
2023-03-12T22:03:38.341Z,5.45
2023-03-12T22:06:05.662Z,7.30
2023-03-12T22:08:33.190Z,5.35
2023-03-12T22:11:00.721Z,5.88
2023-03-12T22:13:27.918Z,5.90
2023-03-12T22:15:56.251Z,6.25
2023-03-12T22:18:23.743Z,6.38
2023-03-12T22:20:51.901Z,6.20
2023-03-12T22:23:19.209Z,6.47
2023-03-12T22:25:46.586Z,7.40
2023-03-12T22:28:13.772Z,7.55
2023-03-12T22:30:40.932Z,8.68
2023-03-12T22:33:08.136Z,8.32
2023-03-12T22:35:35.267Z,5.10
2023-03-12T22:38:02.475Z,7.28
2023-03-12T22:40:29.660Z,7.10
2023-03-12T22:42:57.460Z,5.50
2023-03-12T22:45:24.610Z,5.22
2023-03-12T22:47:51.756Z,5.03
2023-03-12T22:50:18.973Z,4.88
2023-03-12T22:52:46.193Z,2.80
2023-03-12T22:55:13.392Z,4.93
2023-03-12T22:57:40.650Z,3.88
2023-03-12T23:00:10.409Z,3.95
2023-03-12T23:02:38.181Z,4.00
2023-03-12T23:05:05.909Z,3.85
2023-03-12T23:07:33.115Z,3.92
2023-03-12T23:10:00.569Z,4.90
2023-03-12T23:12:27.689Z,3.75
2023-03-12T23:14:54.839Z,4.38
2023-03-12T23:17:22.337Z,4.55
2023-03-12T23:19:49.533Z,4.03
2023-03-12T23:22:16.855Z,2.95
2023-03-12T23:24:44.062Z,2.88
2023-03-12T23:27:11.277Z,2.47
2023-03-12T23:29:38.461Z,5.07
2023-03-12T23:32:05.802Z,3.55
2023-03-12T23:34:34.393Z,4.05
2023-03-12T23:37:01.711Z,2.08
2023-03-12T23:39:30.471Z,2.40
2023-03-12T23:41:58.245Z,1.95
2023-03-12T23:44:25.493Z,3.00
2023-03-12T23:46:52.714Z,3.35
2023-03-12T23:49:19.886Z,2.05
2023-03-12T23:51:47.400Z,4.47
2023-03-12T23:54:16.025Z,2.00
2023-03-12T23:56:43.341Z,2.28
2023-03-12T23:59:11.059Z,3.83
